Time;durP1;ratioP1;P1;durP2;ratioP2;P2;SDS_P1;SDS_P2;PMS_P1;PMS_P2;Temp;Humidity;BMP_temperature;BMP_pressure;BME280_temperature;BME280_humidity;BME280_pressure;Samples;Min_cycle;Max_cycle;Signal;HPM_P1;HPM_P2
2021/01/27 00:00:26;;;;;;;12.47;9.77;;;4.90;99.90;;;;;;5070847;28;20201;-80
2021/01/27 00:02:53;;;;;;;11.03;8.60;;;5.00;99.90;;;;;;5070372;28;20230;-83
2021/01/27 00:05:24;;;;;;;11.40;9.43;;;5.20;99.90;;;;;;5070902;28;20206;-82
2021/01/27 00:07:51;;;;;;;13.70;9.63;;;5.10;99.90;;;;;;5070062;28;20220;-82
2021/01/27 00:10:18;;;;;;;11.07;9.80;;;5.10;99.90;;;;;;5070609;28;20210;-84
2021/01/27 00:12:45;;;;;;;11.83;9.87;;;5.10;99.90;;;;;;5070497;28;20202;-85
2021/01/27 00:15:15;;;;;;;13.63;10.43;;;5.10;99.90;;;;;;5071167;28;20206;-85
2021/01/27 00:17:42;;;;;;;12.60;11.10;;;5.10;99.90;;;;;;5070674;28;20229;-86
2021/01/27 00:20:09;;;;;;;13.23;11.83;;;5.10;99.90;;;;;;5074047;28;20271;-85
2021/01/27 00:22:36;;;;;;;11.37;10.17;;;5.20;99.90;;;;;;5074078;28;20299;-84
2021/01/27 00:25:03;;;;;;;16.50;11.87;;;5.20;99.90;;;;;;5074304;28;20202;-85
2021/01/27 00:27:29;;;;;;;14.10;10.33;;;5.30;99.90;;;;;;5074074;28;20211;-82
2021/01/27 00:29:57;;;;;;;11.63;10.10;;;5.30;99.90;;;;;;5074215;28;20218;-83
2021/01/27 00:32:23;;;;;;;12.77;11.43;;;5.30;99.90;;;;;;5074018;28;20221;-81
2021/01/27 00:34:49;;;;;;;14.00;9.83;;;5.20;99.90;;;;;;5073191;28;20214;-77
2021/01/27 00:37:16;;;;;;;12.10;10.90;;;5.10;99.90;;;;;;5073689;28;20213;-76
2021/01/27 00:39:42;;;;;;;14.63;11.77;;;5.00;99.90;;;;;;5072950;28;20207;-78
2021/01/27 00:42:09;;;;;;;15.50;12.13;;;5.10;99.90;;;;;;5073493;28;20230;-78
2021/01/27 00:44:35;;;;;;;11.27;9.87;;;5.10;99.90;;;;;;5072776;28;20795;-78
2021/01/27 00:47:03;;;;;;;12.37;11.03;;;5.30;99.90;;;;;;5073129;28;20210;-78
2021/01/27 00:49:29;;;;;;;15.60;12.37;;;5.30;99.90;;;;;;5073031;28;20206;-75
2021/01/27 00:51:56;;;;;;;15.17;11.37;;;5.30;99.90;;;;;;5073275;28;20653;-76
2021/01/27 00:54:22;;;;;;;15.40;12.77;;;5.20;99.90;;;;;;5073222;28;20608;-77
2021/01/27 00:56:48;;;;;;;12.33;11.13;;;5.10;99.90;;;;;;5072241;28;20218;-77
2021/01/27 00:59:15;;;;;;;13.33;11.93;;;5.10;99.90;;;;;;5073448;28;20637;-77
2021/01/27 01:01:41;;;;;;;14.13;12.63;;;5.10;99.90;;;;;;5072478;28;20213;-77
2021/01/27 01:04:09;;;;;;;14.57;13.07;;;5.20;99.90;;;;;;5073008;28;20233;-77
2021/01/27 01:06:35;;;;;;;14.37;12.53;;;5.30;99.90;;;;;;5072691;28;20206;-76
2021/01/27 01:09:02;;;;;;;12.87;11.57;;;5.40;99.90;;;;;;5072938;28;20205;-77
2021/01/27 01:11:28;;;;;;;13.47;11.87;;;5.40;99.90;;;;;;5072538;28;20202;-71
2021/01/27 01:13:55;;;;;;;15.73;12.60;;;5.20;99.90;;;;;;5073206;28;20709;-77
2021/01/27 01:16:21;;;;;;;14.83;13.00;;;5.20;99.90;;;;;;5072669;28;20673;-77
2021/01/27 01:18:48;;;;;;;14.40;12.33;;;5.20;99.90;;;;;;5072355;28;20763;-75
2021/01/27 01:21:15;;;;;;;15.37;13.73;;;5.30;99.90;;;;;;5072378;28;20678;-75
2021/01/27 01:23:42;;;;;;;13.23;11.93;;;5.30;99.90;;;;;;5072328;28;20236;-76
2021/01/27 01:26:09;;;;;;;13.63;11.83;;;5.30;99.90;;;;;;5072098;28;20209;-76
2021/01/27 01:28:35;;;;;;;13.77;12.10;;;5.30;99.90;;;;;;5072240;28;20229;-75
2021/01/27 01:31:02;;;;;;;14.97;13.13;;;5.20;99.90;;;;;;5072318;28;20588;-77
2021/01/27 01:33:30;;;;;;;13.30;11.60;;;5.20;99.90;;;;;;5072299;28;20279;-70
2021/01/27 01:35:56;;;;;;;15.10;12.53;;;5.20;99.90;;;;;;5072619;28;20217;-77
2021/01/27 01:38:24;;;;;;;14.07;12.17;;;5.20;99.90;;;;;;5072681;28;20202;-76
2021/01/27 01:40:54;;;;;;;13.33;12.03;;;5.20;99.90;;;;;;5071921;28;20661;-76
2021/01/27 01:43:23;;;;;;;11.80;10.60;;;5.20;99.90;;;;;;5072110;28;20360;-78
2021/01/27 01:45:51;;;;;;;14.17;12.00;;;5.30;99.90;;;;;;5071803;28;20214;-78
2021/01/27 01:48:29;;;;;;;14.37;11.30;;;5.40;99.90;;;;;;5072166;28;20206;-79
2021/01/27 01:51:00;;;;;;;12.40;11.00;;;5.30;99.90;;;;;;5072430;28;20210;-78
2021/01/27 01:53:28;;;;;;;13.30;11.17;;;5.30;99.90;;;;;;5071632;28;20214;-73
2021/01/27 01:55:57;;;;;;;13.03;11.17;;;5.30;99.90;;;;;;5072054;28;20209;-77
2021/01/27 01:58:23;;;;;;;13.23;11.23;;;5.20;99.90;;;;;;5072403;28;20582;-77
2021/01/27 02:00:54;;;;;;;15.97;11.83;;;5.30;99.90;;;;;;5071376;28;20572;-76
2021/01/27 02:03:21;;;;;;;13.10;11.20;;;5.30;99.90;;;;;;5071680;28;20225;-78
2021/01/27 02:05:48;;;;;;;15.50;10.73;;;5.30;99.90;;;;;;5071399;28;20261;-78
2021/01/27 02:08:16;;;;;;;10.67;9.57;;;5.30;99.90;;;;;;5071869;28;20211;-79
2021/01/27 02:10:43;;;;;;;12.20;10.50;;;5.30;99.90;;;;;;5070898;28;20201;-80
2021/01/27 02:13:50;;;;;;;11.40;10.03;;;5.30;99.90;;;;;;5071849;28;20213;-78
2021/01/27 02:16:22;;;;;;;12.17;9.17;;;5.30;99.90;;;;;;5058974;28;20218;-76
2021/01/27 02:19:09;;;;;;;10.43;9.03;;;5.30;99.90;;;;;;5071061;28;20214;-76
2021/01/27 02:22:12;;;;;;;9.70;8.70;;;5.30;99.90;;;;;;5071365;28;20217;-78
2021/01/27 02:25:37;;;;;;;10.10;9.03;;;5.20;99.90;;;;;;5071016;28;20205;-77
2021/01/27 02:28:09;;;;;;;12.07;8.73;;;5.20;99.90;;;;;;5029245;28;20702;-81
2021/01/27 02:30:54;;;;;;;11.53;9.13;;;5.20;99.90;;;;;;5029356;28;20588;-81
2021/01/27 02:33:49;;;;;;;12.03;9.20;;;5.20;99.90;;;;;;5054062;28;20209;-82
2021/01/27 02:36:23;;;;;;;11.27;10.00;;;5.30;99.90;;;;;;5071561;28;20209;-81
2021/01/27 02:38:55;;;;;;;11.50;9.73;;;5.30;99.90;;;;;;5070899;28;20208;-77
2021/01/27 02:41:30;;;;;;;11.87;10.67;;;5.30;99.90;;;;;;5070747;28;20205;-77
2021/01/27 02:44:02;;;;;;;12.73;9.63;;;5.40;99.90;;;;;;5071133;28;20252;-72
2021/01/27 02:46:33;;;;;;;12.80;9.53;;;5.30;99.90;;;;;;5070648;28;20632;-75
2021/01/27 02:49:04;;;;;;;11.77;10.57;;;5.40;99.90;;;;;;5070939;28;20213;-77
2021/01/27 02:51:38;;;;;;;11.37;9.77;;;5.50;99.90;;;;;;5070531;28;20203;-76
2021/01/27 02:54:10;;;;;;;10.60;9.50;;;5.40;99.90;;;;;;5070920;28;20206;-77
2021/01/27 02:56:41;;;;;;;13.00;10.10;;;5.50;99.90;;;;;;5070524;28;20218;-77
2021/01/27 02:59:14;;;;;;;12.47;10.50;;;5.50;99.90;;;;;;5070687;28;20224;-76
2021/01/27 03:01:46;;;;;;;12.07;10.13;;;5.60;99.90;;;;;;5070352;28;20206;-79
2021/01/27 03:04:17;;;;;;;11.73;8.63;;;5.70;99.90;;;;;;5070705;28;20297;-78
2021/01/27 03:06:47;;;;;;;10.20;9.17;;;5.60;99.90;;;;;;5070197;28;20201;-80
2021/01/27 03:09:20;;;;;;;9.77;8.57;;;5.70;99.90;;;;;;5070802;28;20708;-80
2021/01/27 03:11:47;;;;;;;11.17;9.07;;;5.80;99.90;;;;;;5070095;28;20229;-80
2021/01/27 03:14:13;;;;;;;13.13;10.27;;;5.80;99.90;;;;;;5070685;28;20696;-79
2021/01/27 03:16:45;;;;;;;10.03;8.50;;;5.70;99.90;;;;;;5070309;28;20673;-79
2021/01/27 03:19:17;;;;;;;10.90;8.53;;;5.60;99.90;;;;;;5070478;28;20209;-79
2021/01/27 03:21:48;;;;;;;10.87;8.73;;;5.70;99.90;;;;;;5070295;28;20209;-85
2021/01/27 03:24:19;;;;;;;12.03;8.30;;;5.80;99.90;;;;;;5071033;28;20210;-81
2021/01/27 03:26:54;;;;;;;11.13;8.73;;;5.70;99.90;;;;;;5070541;28;20702;-81
2021/01/27 03:29:32;;;;;;;13.20;9.63;;;5.80;99.90;;;;;;5071074;28;20297;-83
2021/01/27 03:32:02;;;;;;;11.67;8.97;;;5.80;99.90;;;;;;5071114;28;20209;-81
2021/01/27 03:34:34;;;;;;;11.50;9.13;;;5.70;99.90;;;;;;5070733;28;20252;-76
2021/01/27 03:37:07;;;;;;;11.67;10.03;;;5.80;99.90;;;;;;5070829;28;20206;-83
2021/01/27 03:39:36;;;;;;;11.97;9.57;;;5.70;99.90;;;;;;5070458;28;20202;-82
2021/01/27 03:42:08;;;;;;;12.47;10.03;;;5.70;99.90;;;;;;5071282;28;20206;-83
2021/01/27 03:44:39;;;;;;;9.97;8.93;;;5.90;99.90;;;;;;5070406;28;20202;-81
2021/01/27 03:47:09;;;;;;;12.70;10.23;;;6.00;99.90;;;;;;5070857;28;20669;-83
2021/01/27 03:49:43;;;;;;;9.90;8.27;;;6.00;99.90;;;;;;5070505;28;20202;-83
2021/01/27 03:52:15;;;;;;;11.63;10.00;;;6.10;99.90;;;;;;5071426;28;20213;-84
2021/01/27 03:54:46;;;;;;;13.80;9.90;;;6.10;99.90;;;;;;5074661;28;20218;-84
2021/01/27 03:57:17;;;;;;;9.97;8.53;;;6.10;99.90;;;;;;5074614;28;20206;-77
2021/01/27 03:59:45;;;;;;;10.83;9.50;;;6.20;99.90;;;;;;5073613;28;20202;-80
2021/01/27 04:02:15;;;;;;;11.17;9.37;;;6.20;99.90;;;;;;5074501;28;20600;-79
2021/01/27 04:04:42;;;;;;;10.90;9.10;;;6.30;99.90;;;;;;5073788;28;20217;-80
2021/01/27 04:07:09;;;;;;;9.80;8.73;;;6.40;99.90;;;;;;5074208;28;20213;-80
2021/01/27 04:09:36;;;;;;;9.53;8.53;;;6.40;99.90;;;;;;5073830;28;20213;-80
2021/01/27 04:12:02;;;;;;;9.90;7.77;;;6.50;99.90;;;;;;5074017;28;20259;-80
2021/01/27 04:14:29;;;;;;;9.90;8.90;;;6.50;99.90;;;;;;5073403;28;20218;-74
2021/01/27 04:16:55;;;;;;;10.73;8.73;;;6.40;99.90;;;;;;5073921;28;20210;-78
2021/01/27 04:19:22;;;;;;;11.10;8.87;;;6.40;99.90;;;;;;5073919;28;20217;-79
2021/01/27 04:21:48;;;;;;;9.77;8.00;;;6.40;99.90;;;;;;5073737;28;20687;-78
2021/01/27 04:24:16;;;;;;;9.97;8.20;;;6.40;99.90;;;;;;5073659;28;20234;-81
2021/01/27 04:26:42;;;;;;;10.40;7.83;;;6.40;99.90;;;;;;5073266;28;20210;-80
2021/01/27 04:29:08;;;;;;;10.67;9.40;;;6.50;99.90;;;;;;5073535;28;20238;-80
2021/01/27 04:31:35;;;;;;;10.30;7.57;;;6.50;99.90;;;;;;5073660;28;20206;-79
2021/01/27 04:34:01;;;;;;;8.43;7.57;;;6.60;99.90;;;;;;5073427;28;20631;-80
2021/01/27 04:36:29;;;;;;;8.73;7.03;;;6.60;99.90;;;;;;5073745;28;20213;-79
2021/01/27 04:38:55;;;;;;;10.10;7.20;;;6.70;99.90;;;;;;5074169;28;20206;-79
2021/01/27 04:41:23;;;;;;;9.90;7.77;;;6.60;99.90;;;;;;5073788;28;20260;-79
2021/01/27 04:43:49;;;;;;;7.77;6.93;;;6.60;99.90;;;;;;5072870;28;20609;-77
2021/01/27 04:46:21;;;;;;;10.60;8.30;;;6.70;99.90;;;;;;5073318;28;20456;-80
2021/01/27 04:48:55;;;;;;;8.60;7.67;;;6.70;99.90;;;;;;5072903;28;20361;-81
2021/01/27 04:51:26;;;;;;;10.23;9.03;;;6.80;99.90;;;;;;5073720;28;20627;-78
2021/01/27 04:54:12;;;;;;;11.97;9.90;;;6.80;99.90;;;;;;5073307;28;20268;-80
2021/01/27 04:56:59;;;;;;;11.40;10.07;;;6.70;99.90;;;;;;5073296;28;20256;-80
2021/01/27 04:59:37;;;;;;;9.87;8.30;;;6.70;99.90;;;;;;5061342;28;20744;-79
2021/01/27 05:02:18;;;;;;;11.37;8.93;;;6.70;99.90;;;;;;5072725;28;20666;-78
2021/01/27 05:04:54;;;;;;;10.47;9.10;;;6.80;99.90;;;;;;5071790;28;20210;-78
2021/01/27 05:07:26;;;;;;;12.50;9.33;;;6.80;99.90;;;;;;5073271;28;20213;-79
2021/01/27 05:09:57;;;;;;;11.13;9.30;;;6.80;99.90;;;;;;5072798;28;20289;-78
2021/01/27 05:12:30;;;;;;;11.57;9.53;;;6.80;99.90;;;;;;5073233;28;20292;-79
2021/01/27 05:14:58;;;;;;;14.40;10.87;;;6.70;99.90;;;;;;5072745;28;20209;-75
2021/01/27 05:17:24;;;;;;;13.77;10.70;;;6.60;99.90;;;;;;5072801;28;20206;-80
2021/01/27 05:19:51;;;;;;;11.50;10.30;;;6.60;99.90;;;;;;5072345;28;20251;-79
2021/01/27 05:22:18;;;;;;;11.00;9.80;;;6.60;99.90;;;;;;5072654;28;20213;-79
2021/01/27 05:24:46;;;;;;;14.73;10.83;;;6.70;99.90;;;;;;5072225;28;20673;-79
2021/01/27 05:27:19;;;;;;;14.40;10.80;;;6.60;99.90;;;;;;5072329;28;20215;-75
2021/01/27 05:29:52;;;;;;;9.43;8.47;;;6.60;99.90;;;;;;5072607;28;20222;-80
2021/01/27 05:32:20;;;;;;;14.17;12.67;;;6.70;99.90;;;;;;5072639;28;20207;-81
2021/01/27 05:34:48;;;;;;;14.40;12.50;;;6.70;99.90;;;;;;5072630;28;20260;-80
2021/01/27 05:37:17;;;;;;;14.63;11.50;;;6.70;99.90;;;;;;5072910;28;20206;-81
2021/01/27 05:39:45;;;;;;;14.00;10.73;;;6.70;99.90;;;;;;5072298;28;20198;-79
2021/01/27 05:42:29;;;;;;;11.77;9.80;;;6.70;99.90;;;;;;5072517;28;20206;-81
2021/01/27 05:44:59;;;;;;;14.03;10.73;;;6.60;99.90;;;;;;5073155;28;20206;-81
2021/01/27 05:47:35;;;;;;;15.90;11.10;;;6.50;99.90;;;;;;5072599;28;20210;-80
2021/01/27 05:50:21;;;;;;;14.97;11.90;;;6.50;99.90;;;;;;5072238;28;20206;-78
2021/01/27 05:52:48;;;;;;;13.10;10.73;;;6.50;99.90;;;;;;5071743;28;20292;-77
2021/01/27 05:55:15;;;;;;;14.63;10.90;;;6.60;99.90;;;;;;5071986;28;20210;-79
2021/01/27 05:57:42;;;;;;;19.43;11.87;;;6.50;99.90;;;;;;5071924;28;20293;-78
2021/01/27 06:00:26;;;;;;;15.27;11.43;;;6.50;99.90;;;;;;5070588;28;20693;-78
2021/01/27 06:02:54;;;;;;;13.37;10.70;;;6.70;99.90;;;;;;5071682;28;20313;-78
2021/01/27 06:05:36;;;;;;;14.40;11.13;;;6.80;99.90;;;;;;5071421;28;20206;-79
2021/01/27 06:08:17;;;;;;;15.27;11.97;;;6.80;99.90;;;;;;5071905;28;20210;-79
2021/01/27 06:10:44;;;;;;;12.97;10.60;;;6.80;99.90;;;;;;5071184;28;20256;-79
2021/01/27 06:13:23;;;;;;;15.00;11.80;;;6.90;99.90;;;;;;5071275;28;20582;-79
2021/01/27 06:15:51;;;;;;;19.10;11.90;;;6.90;99.90;;;;;;5071337;28;20244;-78
2021/01/27 06:18:28;;;;;;;14.40;10.77;;;6.80;99.90;;;;;;5071375;28;20222;-78
2021/01/27 06:21:17;;;;;;;15.10;10.60;;;6.80;99.90;;;;;;5071352;28;20213;-79
2021/01/27 06:24:09;;;;;;;14.63;10.77;;;6.90;99.90;;;;;;5071070;28;20233;-77
2021/01/27 06:26:58;;;;;;;14.10;11.90;;;6.80;99.90;;;;;;5071156;28;20583;-79
2021/01/27 06:29:38;;;;;;;15.20;11.20;;;6.90;99.90;;;;;;5071476;28;20256;-79
2021/01/27 06:32:17;;;;;;;17.43;12.30;;;6.90;99.90;;;;;;5071202;28;20544;-80
2021/01/27 06:34:56;;;;;;;14.40;11.80;;;6.90;99.90;;;;;;5058494;28;20202;-79
2021/01/27 06:37:41;;;;;;;14.97;11.10;;;7.00;99.90;;;;;;5071106;28;20205;-81
2021/01/27 06:40:31;;;;;;;13.90;11.03;;;7.00;99.90;;;;;;5071165;28;20623;-79
2021/01/27 06:43:20;;;;;;;12.90;10.17;;;7.00;99.90;;;;;;5070895;28;20213;-78
2021/01/27 06:46:00;;;;;;;13.60;11.17;;;7.10;99.90;;;;;;5058440;28;20597;-77
2021/01/27 06:48:39;;;;;;;15.03;13.10;;;7.10;99.90;;;;;;5071258;28;20564;-81
2021/01/27 06:52:01;;;;;;;19.10;15.83;;;7.10;99.90;;;;;;5070768;28;20209;-79
2021/01/27 06:54:46;;;;;;;16.57;12.13;;;7.20;99.90;;;;;;5071061;28;20214;-79
2021/01/27 06:57:18;;;;;;;15.97;12.17;;;7.20;99.90;;;;;;5070593;28;20696;-78
2021/01/27 07:00:19;;;;;;;15.43;13.53;;;7.20;99.90;;;;;;5070608;28;20728;-80
2021/01/27 07:03:16;;;;;;;15.70;14.00;;;7.10;99.90;;;;;;5060700;28;20611;-80
2021/01/27 07:06:16;;;;;;;23.10;17.77;;;7.10;99.90;;;;;;5070519;28;20205;-80
2021/01/27 07:09:23;;;;;;;16.43;13.67;;;7.20;99.90;;;;;;5070397;28;20199;-79
2021/01/27 07:12:03;;;;;;;21.20;15.97;;;7.20;99.90;;;;;;5057119;28;20210;-80
2021/01/27 07:14:46;;;;;;;19.33;15.93;;;7.20;99.90;;;;;;5071358;28;20210;-80
2021/01/27 07:17:31;;;;;;;19.13;16.07;;;7.20;99.90;;;;;;5070798;28;20205;-82
2021/01/27 07:20:19;;;;;;;21.30;14.73;;;7.30;99.90;;;;;;5070824;28;20275;-78
2021/01/27 07:22:58;;;;;;;19.90;16.83;;;7.30;99.90;;;;;;5070372;28;20237;-79
2021/01/27 07:25:40;;;;;;;18.33;15.27;;;7.30;99.90;;;;;;5070734;28;20214;-79
2021/01/27 07:28:13;;;;;;;18.07;14.47;;;7.40;99.90;;;;;;5070325;28;20213;-78
2021/01/27 07:30:46;;;;;;;18.30;15.17;;;7.40;99.90;;;;;;5069839;28;20210;-77
2021/01/27 07:33:19;;;;;;;22.67;19.10;;;7.40;99.90;;;;;;5070644;28;20201;-79
2021/01/27 07:35:58;;;;;;;22.90;20.30;;;7.40;99.90;;;;;;5070141;28;20259;-77
2021/01/27 07:38:30;;;;;;;29.53;22.37;;;7.40;99.90;;;;;;5070515;28;20202;-76
2021/01/27 07:41:00;;;;;;;21.93;19.00;;;7.40;99.90;;;;;;5069897;28;20214;-80
2021/01/27 07:43:30;;;;;;;23.37;18.60;;;7.50;99.90;;;;;;5069241;28;20605;-76
2021/01/27 07:45:56;;;;;;;22.10;16.30;;;7.60;99.90;;;;;;5060983;28;20218;-76
2021/01/27 07:48:29;;;;;;;19.17;17.17;;;7.70;99.90;;;;;;5070512;28;20206;-77
2021/01/27 07:50:59;;;;;;;17.57;15.77;;;7.80;99.90;;;;;;5069767;28;20210;-78
2021/01/27 07:53:33;;;;;;;17.40;15.27;;;7.80;99.90;;;;;;5071042;28;20217;-79
2021/01/27 07:56:10;;;;;;;20.20;15.73;;;7.80;99.90;;;;;;5069955;28;20206;-78
2021/01/27 07:58:43;;;;;;;24.37;21.73;;;7.90;99.90;;;;;;5069842;28;20213;-78
2021/01/27 08:01:14;;;;;;;23.53;20.77;;;7.90;99.90;;;;;;5070156;28;20234;-72
2021/01/27 08:03:54;;;;;;;19.47;17.50;;;7.90;99.90;;;;;;5069503;28;20237;-74
2021/01/27 08:06:24;;;;;;;18.90;15.47;;;8.00;99.90;;;;;;5074512;28;20724;-79
2021/01/27 08:08:53;;;;;;;19.47;13.67;;;8.00;99.90;;;;;;5069522;28;20974;-77
2021/01/27 08:11:29;;;;;;;19.80;14.87;;;7.90;99.90;;;;;;5069656;28;20206;-77
2021/01/27 08:13:55;;;;;;;18.30;15.63;;;7.90;99.90;;;;;;5069759;28;20198;-75
2021/01/27 08:16:31;;;;;;;18.30;15.33;;;8.00;99.90;;;;;;5069765;28;20693;-75
2021/01/27 08:19:22;;;;;;;16.20;14.47;;;8.00;99.90;;;;;;5069968;28;20206;-76
2021/01/27 08:22:01;;;;;;;14.90;13.07;;;8.00;99.90;;;;;;5063153;28;20210;-71
2021/01/27 08:24:53;;;;;;;20.93;14.90;;;8.10;99.90;;;;;;5061686;28;20221;-72
2021/01/27 08:27:38;;;;;;;35.27;26.17;;;8.20;99.90;;;;;;5069521;28;20221;-73
2021/01/27 08:30:24;;;;;;;32.27;26.80;;;8.10;99.90;;;;;;5068727;28;20236;-74
2021/01/27 08:33:10;;;;;;;26.47;20.40;;;8.20;99.90;;;;;;5055623;28;20210;-72
2021/01/27 08:35:59;;;;;;;23.07;18.17;;;8.30;99.90;;;;;;5069246;28;20210;-73
2021/01/27 08:38:29;;;;;;;43.93;36.60;;;8.30;99.90;;;;;;5069758;28;20560;-75
2021/01/27 08:40:57;;;;;;;21.80;18.60;;;8.30;99.90;;;;;;5072434;28;20234;-75
2021/01/27 08:43:30;;;;;;;25.73;16.43;;;8.20;99.90;;;;;;5073224;28;20234;-78
2021/01/27 08:45:57;;;;;;;19.60;15.03;;;8.10;99.90;;;;;;5071941;28;20202;-76
2021/01/27 08:48:47;;;;;;;28.97;21.80;;;8.10;99.90;;;;;;5072095;28;20678;-79
2021/01/27 08:51:55;;;;;;;23.43;17.90;;;8.30;99.90;;;;;;5069175;28;20206;-80
2021/01/27 08:54:45;;;;;;;52.40;46.87;;;8.50;99.90;;;;;;5072044;28;20206;-76
2021/01/27 08:57:19;;;;;;;39.63;29.50;;;8.50;99.90;;;;;;5067930;28;20202;-75
2021/01/27 08:59:56;;;;;;;31.83;23.47;;;8.50;99.90;;;;;;5069956;28;20209;-77
2021/01/27 09:02:59;;;;;;;23.93;15.90;;;8.50;99.90;;;;;;5059044;28;20731;-80
2021/01/27 09:05:43;;;;;;;23.37;18.00;;;8.50;99.90;;;;;;5065275;28;20202;-78
2021/01/27 09:08:32;;;;;;;20.43;16.70;;;8.40;99.90;;;;;;5068565;28;20207;-80
2021/01/27 09:11:01;;;;;;;18.27;14.53;;;8.50;99.90;;;;;;5067928;28;20285;-76
2021/01/27 09:13:34;;;;;;;23.53;14.83;;;8.50;99.90;;;;;;5072865;28;20213;-77
2021/01/27 09:16:05;;;;;;;23.17;19.93;;;8.50;99.90;;;;;;5073155;28;20198;-79
2021/01/27 09:18:32;;;;;;;22.43;15.70;;;8.50;99.90;;;;;;5072355;28;20218;-76
2021/01/27 09:21:10;;;;;;;19.67;14.33;;;8.60;99.90;;;;;;5072931;28;20581;-78
2021/01/27 09:23:37;;;;;;;21.00;14.33;;;8.60;99.90;;;;;;5072186;28;20222;-80
2021/01/27 09:26:13;;;;;;;17.10;13.00;;;8.60;99.90;;;;;;5066178;28;20210;-80
2021/01/27 09:28:41;;;;;;;16.83;12.27;;;8.70;99.90;;;;;;5070520;28;20206;-74
2021/01/27 09:31:13;;;;;;;17.87;12.87;;;8.80;99.90;;;;;;5069849;28;20214;-78
2021/01/27 09:33:39;;;;;;;17.47;12.43;;;8.70;99.90;;;;;;5063309;28;20233;-75
2021/01/27 09:36:13;;;;;;;16.10;12.57;;;8.80;99.90;;;;;;5066833;28;20230;-76
2021/01/27 09:38:39;;;;;;;19.93;11.93;;;8.80;99.90;;;;;;5063926;28;20203;-80
2021/01/27 09:41:10;;;;;;;20.50;12.63;;;8.80;99.90;;;;;;5070251;28;20253;-77
2021/01/27 09:43:41;;;;;;;16.57;11.10;;;8.90;99.90;;;;;;5070196;28;20225;-77
2021/01/27 09:46:26;;;;;;;15.33;12.17;;;9.00;99.90;;;;;;5063883;28;20202;-78
2021/01/27 09:48:55;;;;;;;16.20;12.30;;;9.00;99.90;;;;;;5059002;28;20555;-81
2021/01/27 09:51:22;;;;;;;17.97;12.43;;;9.00;99.90;;;;;;5063089;28;20248;-78
2021/01/27 09:53:54;;;;;;;27.90;17.37;;;9.10;99.90;;;;;;5065237;28;20575;-77
2021/01/27 09:56:21;;;;;;;16.00;12.03;;;9.20;99.90;;;;;;5066868;28;20743;-75
2021/01/27 09:58:49;;;;;;;18.43;11.83;;;9.20;99.90;;;;;;5071285;28;20670;-78
2021/01/27 10:01:18;;;;;;;15.00;10.40;;;9.10;99.90;;;;;;5065890;28;20678;-76
2021/01/27 10:03:46;;;;;;;14.67;11.57;;;9.30;99.90;;;;;;5059317;28;20226;-76
2021/01/27 10:06:32;;;;;;;12.57;10.00;;;9.40;99.90;;;;;;5071497;28;20213;-79
2021/01/27 10:09:01;;;;;;;15.07;10.33;;;9.40;99.90;;;;;;5071779;28;20198;-78
2021/01/27 10:11:30;;;;;;;18.73;10.33;;;9.40;99.90;;;;;;5072209;28;20210;-78
2021/01/27 10:14:01;;;;;;;17.77;11.17;;;9.50;99.90;;;;;;5070643;28;20209;-79
2021/01/27 10:16:27;;;;;;;15.23;9.83;;;9.70;99.90;;;;;;5072059;28;20209;-79
2021/01/27 10:19:02;;;;;;;13.70;10.77;;;9.80;99.90;;;;;;5070170;28;20217;-76
2021/01/27 10:21:29;;;;;;;14.00;11.20;;;10.00;99.90;;;;;;5067160;28;20209;-80
2021/01/27 10:23:55;;;;;;;14.73;10.90;;;10.20;99.90;;;;;;5071163;28;20658;-78
2021/01/27 10:26:35;;;;;;;19.53;15.37;;;10.20;99.90;;;;;;5061832;28;20682;-79
2021/01/27 10:29:22;;;;;;;15.33;10.37;;;10.30;99.90;;;;;;5061537;28;20285;-73
2021/01/27 10:31:51;;;;;;;16.57;10.10;;;10.60;99.90;;;;;;5064088;28;20658;-78
2021/01/27 10:34:41;;;;;;;19.93;12.57;;;10.70;99.90;;;;;;5070782;28;20583;-77
2021/01/27 10:37:33;;;;;;;13.03;9.73;;;10.70;99.90;;;;;;5064578;28;20237;-74
2021/01/27 10:40:22;;;;;;;16.37;9.03;;;10.50;99.90;;;;;;5064465;28;20202;-78
2021/01/27 10:42:51;;;;;;;10.33;8.40;;;10.50;99.90;;;;;;5066998;28;20206;-77
2021/01/27 10:45:33;;;;;;;9.70;8.13;;;10.60;99.90;;;;;;5070730;28;20206;-74
2021/01/27 10:48:05;;;;;;;11.23;8.70;;;10.70;99.90;;;;;;5070685;28;20685;-75
2021/01/27 10:50:32;;;;;;;13.67;9.60;;;10.80;99.90;;;;;;5065897;28;20551;-74
2021/01/27 10:53:02;;;;;;;13.07;9.47;;;11.00;99.90;;;;;;5067922;28;20712;-74
2021/01/27 10:55:32;;;;;;;17.20;11.00;;;11.20;99.90;;;;;;5066399;28;20551;-77
2021/01/27 10:58:06;;;;;;;15.70;11.67;;;11.40;99.90;;;;;;5070852;28;20229;-80
2021/01/27 11:00:33;;;;;;;15.80;12.07;;;11.40;99.90;;;;;;5067640;28;20194;-74
2021/01/27 11:03:00;;;;;;;20.57;16.20;;;11.60;99.90;;;;;;5066339;28;20782;-78
2021/01/27 11:05:27;;;;;;;25.77;18.03;;;11.40;99.90;;;;;;5070757;28;20206;-74
2021/01/27 11:07:54;;;;;;;20.20;16.73;;;11.50;99.90;;;;;;5065354;28;20205;-75
2021/01/27 11:10:20;;;;;;;20.10;18.10;;;11.30;99.90;;;;;;5067321;28;20457;-75
2021/01/27 11:12:47;;;;;;;19.43;17.23;;;11.50;99.90;;;;;;5070264;28;20210;-76
2021/01/27 11:15:13;;;;;;;19.90;14.37;;;11.50;99.90;;;;;;5070163;28;20202;-75
2021/01/27 11:17:41;;;;;;;19.77;14.87;;;11.30;99.90;;;;;;5070122;28;20201;-78
2021/01/27 11:20:08;;;;;;;18.97;13.63;;;11.20;99.90;;;;;;5064317;28;20280;-80
2021/01/27 11:22:36;;;;;;;16.23;13.40;;;11.20;99.90;;;;;;5069358;28;20202;-76
2021/01/27 11:25:03;;;;;;;16.80;13.87;;;11.10;99.90;;;;;;5068107;28;20256;-75
2021/01/27 11:27:29;;;;;;;15.97;13.30;;;11.80;99.90;;;;;;5068590;28;20202;-77
2021/01/27 11:29:56;;;;;;;14.93;11.20;;;12.30;99.90;;;;;;5068045;28;20202;-75
2021/01/27 11:32:22;;;;;;;16.40;10.90;;;12.90;99.90;;;;;;5069962;28;20206;-76
2021/01/27 11:34:50;;;;;;;15.77;13.50;;;12.80;99.90;;;;;;5069758;28;20677;-78
2021/01/27 11:37:16;;;;;;;20.37;17.50;;;12.40;99.90;;;;;;5070265;28;20202;-80
2021/01/27 11:39:42;;;;;;;38.30;33.13;;;11.90;99.90;;;;;;5069940;28;20198;-79
2021/01/27 11:42:09;;;;;;;18.17;15.17;;;11.90;99.90;;;;;;5070468;28;20213;-79
2021/01/27 11:44:36;;;;;;;17.97;15.50;;;12.50;99.90;;;;;;5069728;28;20222;-79
2021/01/27 11:47:02;;;;;;;23.33;20.03;;;12.50;99.90;;;;;;5070169;28;20202;-80
2021/01/27 11:49:29;;;;;;;17.13;13.63;;;12.50;99.90;;;;;;5070647;28;20213;-79
2021/01/27 11:51:56;;;;;;;16.57;12.43;;;13.00;99.90;;;;;;5069912;28;20198;-73
2021/01/27 11:54:23;;;;;;;14.33;12.43;;;13.30;99.90;;;;;;5070019;28;20623;-78
2021/01/27 11:56:50;;;;;;;14.77;12.07;;;13.60;99.90;;;;;;5069533;28;20214;-80
2021/01/27 11:59:16;;;;;;;11.53;9.43;;;14.10;99.90;;;;;;5070530;28;20263;-78
2021/01/27 12:01:42;;;;;;;14.63;11.43;;;13.90;99.90;;;;;;5069482;28;20202;-78
2021/01/27 12:04:09;;;;;;;13.05;10.55;;;13.80;99.90;;;;;;5070404;28;20234;-77
2021/01/27 12:06:35;;;;;;;15.37;12.03;;;14.00;99.90;;;;;;5069964;28;20202;-72
2021/01/27 12:09:03;;;;;;;15.77;12.10;;;14.00;99.90;;;;;;5070234;28;20689;-74
2021/01/27 12:11:29;;;;;;;12.60;11.20;;;13.60;99.90;;;;;;5070481;28;20225;-72
2021/01/27 12:13:56;;;;;;;12.83;9.17;;;13.20;99.90;;;;;;5065164;28;20202;-74
2021/01/27 12:16:22;;;;;;;10.65;9.55;;;13.50;99.90;;;;;;5064662;28;20212;-75
2021/01/27 12:18:49;;;;;;;12.27;9.00;;;13.40;99.90;;;;;;5073311;28;20214;-74
2021/01/27 12:21:15;;;;;;;14.13;10.53;;;13.10;99.90;;;;;;5074033;28;20206;-74
2021/01/27 12:23:42;;;;;;;13.85;10.98;;;13.00;99.90;;;;;;5068218;28;20218;-77
2021/01/27 12:26:09;;;;;;;16.13;11.77;;;13.30;99.90;;;;;;5065043;28;20202;-79
2021/01/27 12:28:37;;;;;;;14.82;10.65;;;13.40;99.90;;;;;;5071432;28;20731;-78
2021/01/27 12:31:04;;;;;;;16.13;12.15;;;13.30;99.90;;;;;;5072425;28;20231;-78
2021/01/27 12:33:30;;;;;;;14.23;12.27;;;13.10;99.90;;;;;;5073926;28;20206;-77
2021/01/27 12:35:57;;;;;;;12.18;10.88;;;13.00;99.90;;;;;;5073228;28;20202;-78
2021/01/27 12:38:23;;;;;;;15.23;12.48;;;13.20;99.90;;;;;;5073397;28;20208;-77
2021/01/27 12:40:50;;;;;;;14.23;12.35;;;13.40;99.90;;;;;;5072862;28;20289;-79
2021/01/27 12:43:18;;;;;;;15.95;12.38;;;13.70;99.90;;;;;;5073100;28;20229;-76
2021/01/27 12:45:44;;;;;;;15.25;13.20;;;13.70;99.90;;;;;;5072669;28;20217;-79
2021/01/27 12:48:10;;;;;;;14.38;12.00;;;13.70;99.90;;;;;;5070251;28;20587;-75
2021/01/27 12:50:37;;;;;;;11.15;9.48;;;13.60;99.90;;;;;;5072476;28;20589;-74
2021/01/27 12:53:03;;;;;;;15.70;12.07;;;13.60;99.90;;;;;;5072437;28;20677;-82
2021/01/27 12:55:30;;;;;;;13.10;11.23;;;13.80;99.90;;;;;;5073235;28;20704;-76
2021/01/27 12:57:56;;;;;;;17.75;12.45;;;13.60;99.90;;;;;;5072812;28;20575;-74
2021/01/27 13:00:25;;;;;;;12.77;10.90;;;13.80;99.90;;;;;;5071634;28;20206;-78
2021/01/27 13:02:54;;;;;;;12.02;10.73;;;14.00;99.90;;;;;;5072520;28;20210;-76
2021/01/27 13:05:22;;;;;;;13.93;10.05;;;14.70;99.90;;;;;;5069736;28;20629;-72